sensor_id;sensor_type;location;lat;lon;timestamp;P1;durP1;ratioP1;P2;durP2;ratioP2
21671;SDS011;10997;52.242;8.168;2023-05-14T00:01:18;9.90;;;8.30;;
21671;SDS011;10997;52.242;8.168;2023-05-14T00:06:19;9.77;;;8.50;;
21671;SDS011;10997;52.242;8.168;2023-05-14T00:11:19;16.33;;;9.25;;
21671;SDS011;10997;52.242;8.168;2023-05-14T00:16:20;12.10;;;9.00;;
21671;SDS011;10997;52.242;8.168;2023-05-14T00:21:21;14.50;;;8.93;;
21671;SDS011;10997;52.242;8.168;2023-05-14T00:26:21;12.88;;;9.27;;
21671;SDS011;10997;52.242;8.168;2023-05-14T00:31:22;11.65;;;9.27;;
21671;SDS011;10997;52.242;8.168;2023-05-14T00:36:22;10.40;;;9.27;;
21671;SDS011;10997;52.242;8.168;2023-05-14T00:41:23;10.65;;;9.35;;
21671;SDS011;10997;52.242;8.168;2023-05-14T00:46:23;12.18;;;8.70;;
21671;SDS011;10997;52.242;8.168;2023-05-14T00:51:24;12.18;;;8.38;;
21671;SDS011;10997;52.242;8.168;2023-05-14T00:56:25;10.85;;;8.45;;
21671;SDS011;10997;52.242;8.168;2023-05-14T01:01:26;10.45;;;8.70;;
21671;SDS011;10997;52.242;8.168;2023-05-14T01:16:58;11.10;;;9.60;;
21671;SDS011;10997;52.242;8.168;2023-05-14T01:22:01;9.77;;;8.80;;
21671;SDS011;10997;52.242;8.168;2023-05-14T01:27:19;11.95;;;9.68;;
21671;SDS011;10997;52.242;8.168;2023-05-14T01:32:28;9.63;;;8.65;;
21671;SDS011;10997;52.242;8.168;2023-05-14T01:37:30;10.20;;;9.20;;
21671;SDS011;10997;52.242;8.168;2023-05-14T01:42:31;11.55;;;9.50;;
21671;SDS011;10997;52.242;8.168;2023-05-14T01:47:32;13.75;;;11.15;;
21671;SDS011;10997;52.242;8.168;2023-05-14T01:52:32;14.10;;;11.57;;
21671;SDS011;10997;52.242;8.168;2023-05-14T01:57:33;15.48;;;11.70;;
21671;SDS011;10997;52.242;8.168;2023-05-14T02:02:34;14.40;;;11.80;;
21671;SDS011;10997;52.242;8.168;2023-05-14T02:07:34;17.58;;;12.48;;
21671;SDS011;10997;52.242;8.168;2023-05-14T02:12:35;13.23;;;11.93;;
21671;SDS011;10997;52.242;8.168;2023-05-14T02:17:35;14.45;;;11.68;;
21671;SDS011;10997;52.242;8.168;2023-05-14T02:22:36;13.02;;;11.50;;
21671;SDS011;10997;52.242;8.168;2023-05-14T02:27:37;18.40;;;12.45;;
21671;SDS011;10997;52.242;8.168;2023-05-14T02:32:37;14.13;;;12.73;;
21671;SDS011;10997;52.242;8.168;2023-05-14T02:37:38;14.68;;;12.48;;
21671;SDS011;10997;52.242;8.168;2023-05-14T02:42:38;13.93;;;11.70;;
21671;SDS011;10997;52.242;8.168;2023-05-14T02:47:39;15.18;;;12.30;;
21671;SDS011;10997;52.242;8.168;2023-05-14T02:52:40;16.35;;;13.05;;
21671;SDS011;10997;52.242;8.168;2023-05-14T02:57:40;14.10;;;12.70;;
21671;SDS011;10997;52.242;8.168;2023-05-14T03:02:41;14.45;;;11.93;;
21671;SDS011;10997;52.242;8.168;2023-05-14T03:07:42;13.65;;;12.27;;
21671;SDS011;10997;52.242;8.168;2023-05-14T03:12:42;14.90;;;13.27;;
21671;SDS011;10997;52.242;8.168;2023-05-14T03:17:43;16.75;;;12.68;;
21671;SDS011;10997;52.242;8.168;2023-05-14T03:22:44;18.80;;;12.88;;
21671;SDS011;10997;52.242;8.168;2023-05-14T03:27:45;14.10;;;12.70;;
21671;SDS011;10997;52.242;8.168;2023-05-14T03:32:45;15.77;;;13.15;;
21671;SDS011;10997;52.242;8.168;2023-05-14T03:37:46;16.48;;;12.73;;
21671;SDS011;10997;52.242;8.168;2023-05-14T03:42:46;13.95;;;12.48;;
21671;SDS011;10997;52.242;8.168;2023-05-14T03:47:47;15.85;;;13.18;;
21671;SDS011;10997;52.242;8.168;2023-05-14T03:52:47;15.35;;;13.73;;
21671;SDS011;10997;52.242;8.168;2023-05-14T03:57:48;15.70;;;13.68;;
21671;SDS011;10997;52.242;8.168;2023-05-14T04:02:49;16.98;;;13.98;;
21671;SDS011;10997;52.242;8.168;2023-05-14T04:07:49;19.45;;;13.43;;
21671;SDS011;10997;52.242;8.168;2023-05-14T04:12:51;14.52;;;13.10;;
21671;SDS011;10997;52.242;8.168;2023-05-14T04:17:52;13.75;;;12.32;;
21671;SDS011;10997;52.242;8.168;2023-05-14T04:22:52;14.88;;;12.98;;
21671;SDS011;10997;52.242;8.168;2023-05-14T04:27:53;13.50;;;11.98;;
21671;SDS011;10997;52.242;8.168;2023-05-14T04:32:54;16.52;;;12.95;;
21671;SDS011;10997;52.242;8.168;2023-05-14T04:37:54;16.08;;;12.38;;
21671;SDS011;10997;52.242;8.168;2023-05-14T04:42:55;13.57;;;12.10;;
21671;SDS011;10997;52.242;8.168;2023-05-14T04:47:56;14.07;;;11.90;;
21671;SDS011;10997;52.242;8.168;2023-05-14T04:52:56;13.38;;;12.07;;
21671;SDS011;10997;52.242;8.168;2023-05-14T04:57:57;14.48;;;12.88;;
21671;SDS011;10997;52.242;8.168;2023-05-14T05:02:58;18.05;;;12.88;;
21671;SDS011;10997;52.242;8.168;2023-05-14T05:07:58;15.10;;;13.20;;
21671;SDS011;10997;52.242;8.168;2023-05-14T05:12:59;14.73;;;13.10;;
21671;SDS011;10997;52.242;8.168;2023-05-14T05:17:59;18.65;;;15.10;;
21671;SDS011;10997;52.242;8.168;2023-05-14T05:23:00;17.25;;;13.45;;
21671;SDS011;10997;52.242;8.168;2023-05-14T05:28:01;16.45;;;12.60;;
21671;SDS011;10997;52.242;8.168;2023-05-14T05:33:01;13.07;;;11.77;;
21671;SDS011;10997;52.242;8.168;2023-05-14T05:38:02;14.35;;;12.88;;
21671;SDS011;10997;52.242;8.168;2023-05-14T05:43:05;16.75;;;13.25;;
21671;SDS011;10997;52.242;8.168;2023-05-14T05:48:06;16.40;;;13.40;;
21671;SDS011;10997;52.242;8.168;2023-05-14T05:53:07;14.63;;;13.10;;
21671;SDS011;10997;52.242;8.168;2023-05-14T05:58:07;16.90;;;13.75;;
21671;SDS011;10997;52.242;8.168;2023-05-14T06:03:08;15.68;;;13.98;;
21671;SDS011;10997;52.242;8.168;2023-05-14T06:08:08;15.70;;;14.07;;
21671;SDS011;10997;52.242;8.168;2023-05-14T06:13:09;15.70;;;14.10;;
21671;SDS011;10997;52.242;8.168;2023-05-14T06:18:10;14.10;;;12.60;;
21671;SDS011;10997;52.242;8.168;2023-05-14T06:23:10;15.02;;;13.15;;
21671;SDS011;10997;52.242;8.168;2023-05-14T06:28:11;14.18;;;12.02;;
21671;SDS011;10997;52.242;8.168;2023-05-14T06:33:12;15.73;;;12.30;;
21671;SDS011;10997;52.242;8.168;2023-05-14T06:38:13;14.15;;;11.05;;
21671;SDS011;10997;52.242;8.168;2023-05-14T06:43:14;12.23;;;10.60;;
21671;SDS011;10997;52.242;8.168;2023-05-14T06:48:15;14.45;;;10.60;;
21671;SDS011;10997;52.242;8.168;2023-05-14T06:53:17;11.60;;;9.23;;
21671;SDS011;10997;52.242;8.168;2023-05-14T06:58:18;9.52;;;8.57;;
21671;SDS011;10997;52.242;8.168;2023-05-14T07:03:18;11.15;;;8.48;;
21671;SDS011;10997;52.242;8.168;2023-05-14T07:08:19;9.65;;;8.65;;
21671;SDS011;10997;52.242;8.168;2023-05-14T07:13:19;8.80;;;7.85;;
21671;SDS011;10997;52.242;8.168;2023-05-14T07:18:21;10.05;;;7.45;;
21671;SDS011;10997;52.242;8.168;2023-05-14T07:23:22;10.57;;;7.30;;
21671;SDS011;10997;52.242;8.168;2023-05-14T07:28:22;8.40;;;7.28;;
21671;SDS011;10997;52.242;8.168;2023-05-14T07:33:23;9.88;;;6.82;;
21671;SDS011;10997;52.242;8.168;2023-05-14T07:38:24;10.32;;;7.15;;
21671;SDS011;10997;52.242;8.168;2023-05-14T07:43:24;8.15;;;7.35;;
21671;SDS011;10997;52.242;8.168;2023-05-14T07:48:25;9.65;;;7.65;;
21671;SDS011;10997;52.242;8.168;2023-05-14T07:53:25;11.07;;;8.15;;
21671;SDS011;10997;52.242;8.168;2023-05-14T07:58:26;9.15;;;6.75;;
21671;SDS011;10997;52.242;8.168;2023-05-14T08:03:33;7.65;;;6.45;;
21671;SDS011;10997;52.242;8.168;2023-05-14T08:08:34;8.38;;;7.25;;
21671;SDS011;10997;52.242;8.168;2023-05-14T08:13:35;8.48;;;6.93;;
21671;SDS011;10997;52.242;8.168;2023-05-14T08:18:35;7.30;;;5.43;;
21671;SDS011;10997;52.242;8.168;2023-05-14T08:23:36;6.53;;;5.43;;
21671;SDS011;10997;52.242;8.168;2023-05-14T08:28:36;6.95;;;5.38;;
21671;SDS011;10997;52.242;8.168;2023-05-14T08:33:37;6.25;;;5.65;;
21671;SDS011;10997;52.242;8.168;2023-05-14T08:38:37;6.90;;;4.50;;
21671;SDS011;10997;52.242;8.168;2023-05-14T08:54:40;3.95;;;3.50;;
21671;SDS011;10997;52.242;8.168;2023-05-14T08:59:41;4.15;;;3.20;;
21671;SDS011;10997;52.242;8.168;2023-05-14T09:04:41;5.93;;;3.38;;
21671;SDS011;10997;52.242;8.168;2023-05-14T09:09:42;2.90;;;2.60;;
21671;SDS011;10997;52.242;8.168;2023-05-14T09:14:46;4.15;;;3.55;;
21671;SDS011;10997;52.242;8.168;2023-05-14T09:19:47;4.55;;;3.35;;
21671;SDS011;10997;52.242;8.168;2023-05-14T09:25:00;3.92;;;3.35;;
21671;SDS011;10997;52.242;8.168;2023-05-14T09:30:06;8.07;;;3.40;;
21671;SDS011;10997;52.242;8.168;2023-05-14T09:35:15;7.30;;;3.10;;
21671;SDS011;10997;52.242;8.168;2023-05-14T09:40:18;3.33;;;3.00;;
21671;SDS011;10997;52.242;8.168;2023-05-14T09:45:20;3.20;;;2.90;;
21671;SDS011;10997;52.242;8.168;2023-05-14T09:50:21;6.43;;;3.20;;
21671;SDS011;10997;52.242;8.168;2023-05-14T09:55:27;2.90;;;2.60;;
21671;SDS011;10997;52.242;8.168;2023-05-14T10:00:29;3.03;;;2.72;;
21671;SDS011;10997;52.242;8.168;2023-05-14T10:05:34;4.15;;;3.08;;
21671;SDS011;10997;52.242;8.168;2023-05-14T10:10:36;4.70;;;3.00;;
21671;SDS011;10997;52.242;8.168;2023-05-14T10:15:38;3.55;;;2.53;;
21671;SDS011;10997;52.242;8.168;2023-05-14T10:20:47;3.85;;;2.95;;
21671;SDS011;10997;52.242;8.168;2023-05-14T10:25:59;4.57;;;3.15;;
21671;SDS011;10997;52.242;8.168;2023-05-14T10:31:00;5.70;;;3.20;;
21671;SDS011;10997;52.242;8.168;2023-05-14T10:36:05;4.95;;;3.45;;
21671;SDS011;10997;52.242;8.168;2023-05-14T10:41:10;5.13;;;3.30;;
21671;SDS011;10997;52.242;8.168;2023-05-14T10:46:13;4.50;;;2.97;;
21671;SDS011;10997;52.242;8.168;2023-05-14T10:51:14;3.92;;;2.97;;
21671;SDS011;10997;52.242;8.168;2023-05-14T10:56:16;3.38;;;3.00;;
21671;SDS011;10997;52.242;8.168;2023-05-14T11:01:17;2.88;;;2.47;;
21671;SDS011;10997;52.242;8.168;2023-05-14T11:11:24;3.60;;;2.83;;
21671;SDS011;10997;52.242;8.168;2023-05-14T11:16:26;4.07;;;2.55;;
21671;SDS011;10997;52.242;8.168;2023-05-14T11:21:29;3.13;;;2.40;;
21671;SDS011;10997;52.242;8.168;2023-05-14T11:26:31;3.05;;;2.75;;
21671;SDS011;10997;52.242;8.168;2023-05-14T11:31:32;3.08;;;2.50;;
21671;SDS011;10997;52.242;8.168;2023-05-14T11:36:37;3.00;;;2.25;;
21671;SDS011;10997;52.242;8.168;2023-05-14T11:41:42;3.42;;;2.80;;
21671;SDS011;10997;52.242;8.168;2023-05-14T11:46:54;2.95;;;2.42;;
21671;SDS011;10997;52.242;8.168;2023-05-14T11:51:56;2.92;;;2.50;;
21671;SDS011;10997;52.242;8.168;2023-05-14T11:56:58;4.35;;;2.55;;
21671;SDS011;10997;52.242;8.168;2023-05-14T12:02:01;3.83;;;2.38;;
21671;SDS011;10997;52.242;8.168;2023-05-14T12:07:06;3.15;;;2.20;;
21671;SDS011;10997;52.242;8.168;2023-05-14T12:12:09;3.40;;;2.60;;
21671;SDS011;10997;52.242;8.168;2023-05-14T12:17:12;5.70;;;2.10;;
21671;SDS011;10997;52.242;8.168;2023-05-14T12:22:18;2.85;;;2.40;;
21671;SDS011;10997;52.242;8.168;2023-05-14T12:27:22;3.95;;;2.42;;
21671;SDS011;10997;52.242;8.168;2023-05-14T12:32:24;3.70;;;2.20;;
21671;SDS011;10997;52.242;8.168;2023-05-14T12:37:25;3.03;;;2.30;;
21671;SDS011;10997;52.242;8.168;2023-05-14T12:42:26;4.10;;;2.15;;
21671;SDS011;10997;52.242;8.168;2023-05-14T12:47:26;2.60;;;2.40;;
21671;SDS011;10997;52.242;8.168;2023-05-14T12:52:27;3.30;;;2.30;;
21671;SDS011;10997;52.242;8.168;2023-05-14T12:57:28;3.85;;;2.22;;
21671;SDS011;10997;52.242;8.168;2023-05-14T13:02:30;3.05;;;2.00;;
21671;SDS011;10997;52.242;8.168;2023-05-14T13:07:30;2.38;;;2.17;;
21671;SDS011;10997;52.242;8.168;2023-05-14T13:12:31;2.60;;;1.98;;
21671;SDS011;10997;52.242;8.168;2023-05-14T13:17:32;4.45;;;2.00;;
21671;SDS011;10997;52.242;8.168;2023-05-14T13:22:32;2.90;;;2.10;;
21671;SDS011;10997;52.242;8.168;2023-05-14T13:27:33;4.95;;;2.30;;
21671;SDS011;10997;52.242;8.168;2023-05-14T13:32:35;2.38;;;2.17;;
21671;SDS011;10997;52.242;8.168;2023-05-14T13:37:36;1.85;;;1.75;;
21671;SDS011;10997;52.242;8.168;2023-05-14T13:42:37;2.83;;;2.00;;
21671;SDS011;10997;52.242;8.168;2023-05-14T13:47:38;2.58;;;2.10;;
21671;SDS011;10997;52.242;8.168;2023-05-14T13:52:39;2.80;;;1.80;;
21671;SDS011;10997;52.242;8.168;2023-05-14T13:57:39;1.90;;;1.80;;
21671;SDS011;10997;52.242;8.168;2023-05-14T14:02:41;1.98;;;1.85;;
21671;SDS011;10997;52.242;8.168;2023-05-14T14:07:42;2.13;;;1.92;;
21671;SDS011;10997;52.242;8.168;2023-05-14T14:12:43;2.40;;;1.90;;
21671;SDS011;10997;52.242;8.168;2023-05-14T14:17:43;2.72;;;1.88;;
21671;SDS011;10997;52.242;8.168;2023-05-14T14:22:44;2.33;;;1.90;;
21671;SDS011;10997;52.242;8.168;2023-05-14T14:27:45;3.38;;;1.90;;
21671;SDS011;10997;52.242;8.168;2023-05-14T14:32:46;3.28;;;2.00;;
21671;SDS011;10997;52.242;8.168;2023-05-14T14:37:48;3.63;;;2.45;;
21671;SDS011;10997;52.242;8.168;2023-05-14T14:42:49;3.28;;;2.38;;
21671;SDS011;10997;52.242;8.168;2023-05-14T14:47:50;3.25;;;2.10;;
21671;SDS011;10997;52.242;8.168;2023-05-14T14:52:50;2.15;;;1.98;;
21671;SDS011;10997;52.242;8.168;2023-05-14T14:57:51;3.55;;;2.22;;
21671;SDS011;10997;52.242;8.168;2023-05-14T15:02:51;4.68;;;2.38;;
21671;SDS011;10997;52.242;8.168;2023-05-14T15:07:52;3.22;;;2.15;;
21671;SDS011;10997;52.242;8.168;2023-05-14T15:12:55;4.28;;;2.10;;
21671;SDS011;10997;52.242;8.168;2023-05-14T15:17:57;2.90;;;2.00;;
21671;SDS011;10997;52.242;8.168;2023-05-14T15:22:58;5.32;;;2.00;;
21671;SDS011;10997;52.242;8.168;2023-05-14T15:27:58;2.58;;;2.00;;
21671;SDS011;10997;52.242;8.168;2023-05-14T15:32:59;3.55;;;2.28;;
21671;SDS011;10997;52.242;8.168;2023-05-14T15:38:00;3.08;;;2.50;;
21671;SDS011;10997;52.242;8.168;2023-05-14T15:43:00;2.22;;;2.03;;
21671;SDS011;10997;52.242;8.168;2023-05-14T15:48:01;2.53;;;2.28;;
21671;SDS011;10997;52.242;8.168;2023-05-14T15:53:02;3.08;;;2.25;;
21671;SDS011;10997;52.242;8.168;2023-05-14T15:58:02;2.30;;;2.10;;
21671;SDS011;10997;52.242;8.168;2023-05-14T16:03:03;2.55;;;2.10;;
21671;SDS011;10997;52.242;8.168;2023-05-14T16:08:04;5.05;;;2.33;;
21671;SDS011;10997;52.242;8.168;2023-05-14T16:13:05;3.15;;;2.20;;
21671;SDS011;10997;52.242;8.168;2023-05-14T16:18:05;3.03;;;2.15;;
21671;SDS011;10997;52.242;8.168;2023-05-14T16:23:07;5.35;;;2.30;;
21671;SDS011;10997;52.242;8.168;2023-05-14T16:28:08;3.80;;;2.20;;
21671;SDS011;10997;52.242;8.168;2023-05-14T16:33:08;3.53;;;1.95;;
21671;SDS011;10997;52.242;8.168;2023-05-14T16:38:09;1.85;;;1.75;;
21671;SDS011;10997;52.242;8.168;2023-05-14T17:27:49;4.60;;;2.33;;
21671;SDS011;10997;52.242;8.168;2023-05-14T17:57:03;6.53;;;3.78;;
21671;SDS011;10997;52.242;8.168;2023-05-14T18:16:12;16.70;;;4.10;;
21671;SDS011;10997;52.242;8.168;2023-05-14T18:35:21;6.75;;;3.97;;
21671;SDS011;10997;52.242;8.168;2023-05-14T18:40:21;5.75;;;4.80;;
21671;SDS011;10997;52.242;8.168;2023-05-14T18:45:22;6.28;;;4.25;;
21671;SDS011;10997;52.242;8.168;2023-05-14T19:04:12;5.05;;;4.22;;
21671;SDS011;10997;52.242;8.168;2023-05-14T19:09:13;6.25;;;4.60;;
21671;SDS011;10997;52.242;8.168;2023-05-14T19:14:14;7.78;;;4.35;;
21671;SDS011;10997;52.242;8.168;2023-05-14T19:19:15;6.35;;;4.20;;
21671;SDS011;10997;52.242;8.168;2023-05-14T19:24:16;6.45;;;4.03;;
21671;SDS011;10997;52.242;8.168;2023-05-14T19:29:16;6.43;;;4.82;;
21671;SDS011;10997;52.242;8.168;2023-05-14T19:34:17;5.75;;;4.35;;
21671;SDS011;10997;52.242;8.168;2023-05-14T19:39:17;7.35;;;4.82;;
21671;SDS011;10997;52.242;8.168;2023-05-14T19:44:18;5.43;;;4.93;;
21671;SDS011;10997;52.242;8.168;2023-05-14T19:49:19;5.82;;;4.88;;
21671;SDS011;10997;52.242;8.168;2023-05-14T19:54:19;8.10;;;5.53;;
21671;SDS011;10997;52.242;8.168;2023-05-14T19:59:20;5.80;;;5.30;;
21671;SDS011;10997;52.242;8.168;2023-05-14T20:04:20;6.07;;;5.28;;
21671;SDS011;10997;52.242;8.168;2023-05-14T20:09:21;9.20;;;5.72;;
21671;SDS011;10997;52.242;8.168;2023-05-14T20:14:22;6.43;;;5.07;;
21671;SDS011;10997;52.242;8.168;2023-05-14T20:19:22;7.63;;;5.40;;
21671;SDS011;10997;52.242;8.168;2023-05-14T20:24:23;6.15;;;5.55;;
21671;SDS011;10997;52.242;8.168;2023-05-14T20:29:23;6.75;;;5.70;;
21671;SDS011;10997;52.242;8.168;2023-05-14T20:34:24;9.50;;;6.00;;
21671;SDS011;10997;52.242;8.168;2023-05-14T20:39:25;8.50;;;6.25;;
21671;SDS011;10997;52.242;8.168;2023-05-14T20:44:26;7.78;;;6.47;;
21671;SDS011;10997;52.242;8.168;2023-05-14T20:49:26;8.85;;;7.40;;
21671;SDS011;10997;52.242;8.168;2023-05-14T20:54:27;8.57;;;7.72;;
21671;SDS011;10997;52.242;8.168;2023-05-14T20:59:27;8.77;;;6.65;;
21671;SDS011;10997;52.242;8.168;2023-05-14T21:04:28;8.63;;;7.25;;
21671;SDS011;10997;52.242;8.168;2023-05-14T21:09:29;7.25;;;6.55;;
21671;SDS011;10997;52.242;8.168;2023-05-14T21:14:30;8.73;;;7.15;;
21671;SDS011;10997;52.242;8.168;2023-05-14T21:19:30;7.80;;;6.78;;
21671;SDS011;10997;52.242;8.168;2023-05-14T21:24:31;11.00;;;7.97;;
21671;SDS011;10997;52.242;8.168;2023-05-14T21:29:32;11.13;;;9.07;;
21671;SDS011;10997;52.242;8.168;2023-05-14T21:34:32;9.60;;;8.48;;
21671;SDS011;10997;52.242;8.168;2023-05-14T21:39:33;8.55;;;7.68;;
21671;SDS011;10997;52.242;8.168;2023-05-14T21:44:34;9.38;;;7.50;;
21671;SDS011;10997;52.242;8.168;2023-05-14T21:49:34;7.93;;;6.82;;
21671;SDS011;10997;52.242;8.168;2023-05-14T21:54:35;8.20;;;7.13;;
21671;SDS011;10997;52.242;8.168;2023-05-14T21:59:35;7.90;;;7.10;;
21671;SDS011;10997;52.242;8.168;2023-05-14T22:04:36;7.95;;;7.18;;
21671;SDS011;10997;52.242;8.168;2023-05-14T22:09:36;8.75;;;7.45;;
21671;SDS011;10997;52.242;8.168;2023-05-14T22:14:37;9.98;;;7.68;;
21671;SDS011;10997;52.242;8.168;2023-05-14T22:19:37;12.30;;;8.55;;
21671;SDS011;10997;52.242;8.168;2023-05-14T22:24:38;9.65;;;8.70;;
21671;SDS011;10997;52.242;8.168;2023-05-14T22:29:39;11.57;;;8.90;;
21671;SDS011;10997;52.242;8.168;2023-05-14T22:34:40;9.80;;;8.80;;
21671;SDS011;10997;52.242;8.168;2023-05-14T22:39:40;10.85;;;8.02;;
21671;SDS011;10997;52.242;8.168;2023-05-14T22:44:41;9.25;;;8.00;;
21671;SDS011;10997;52.242;8.168;2023-05-14T22:49:42;8.82;;;7.93;;
21671;SDS011;10997;52.242;8.168;2023-05-14T22:54:42;8.95;;;8.05;;
21671;SDS011;10997;52.242;8.168;2023-05-14T22:59:44;9.82;;;8.57;;
21671;SDS011;10997;52.242;8.168;2023-05-14T23:04:44;9.57;;;8.57;;
21671;SDS011;10997;52.242;8.168;2023-05-14T23:09:45;9.20;;;8.30;;
21671;SDS011;10997;52.242;8.168;2023-05-14T23:14:45;12.30;;;8.70;;
21671;SDS011;10997;52.242;8.168;2023-05-14T23:19:46;10.43;;;9.38;;
21671;SDS011;10997;52.242;8.168;2023-05-14T23:24:46;11.27;;;9.20;;
21671;SDS011;10997;52.242;8.168;2023-05-14T23:29:47;10.02;;;9.07;;
21671;SDS011;10997;52.242;8.168;2023-05-14T23:34:47;10.32;;;8.85;;
21671;SDS011;10997;52.242;8.168;2023-05-14T23:39:48;9.98;;;8.98;;
21671;SDS011;10997;52.242;8.168;2023-05-14T23:44:49;12.02;;;8.95;;
21671;SDS011;10997;52.242;8.168;2023-05-14T23:49:49;10.25;;;9.25;;
21671;SDS011;10997;52.242;8.168;2023-05-14T23:54:50;10.18;;;9.02;;
21671;SDS011;10997;52.242;8.168;2023-05-14T23:59:50;11.13;;;9.75;;
